Terminal Aerodrome Forecast
Issued by NWS

Home | Current Version | Previous Version | Text Only | Print | Product List | Glossary On
Versions: 1 2 3 4 5 6 7 8 9 10 11 12 13 14 15 16 17 18 19
787
FTUS46 KSGX 231436 AAB
TAFCRQ
TAF AMD
KCRQ 231436Z 2315/2412 VRB03KT 6SM BR SCT003
     FM231530 19005KT P6SM FEW006 SCT200
     FM231900 23011KT P6SM SCT200
     FM240400 19006KT P6SM BKN006=

USA.gov is the U.S. government's official web portal to all federal, state and local government web resources and services.